Time;durP1;ratioP1;P1;durP2;ratioP2;P2;SDS_P1;SDS_P2;PMS_P1;PMS_P2;Temp;Humidity;BMP_temperature;BMP_pressure;BME280_temperature;BME280_humidity;BME280_pressure;Samples;Min_cycle;Max_cycle;Signal;HPM_P1;HPM_P2
2021/06/21 00:00:04;;;;;;;3.07;1.90;;;29.00;55.50;;;;;;4993871;28;20416;-80
2021/06/21 00:02:30;;;;;;;2.63;2.20;;;29.00;55.50;;;;;;4994785;28;20421;-80
2021/06/21 00:04:57;;;;;;;4.77;1.87;;;28.90;55.40;;;;;;4997362;28;20428;-80
2021/06/21 00:07:23;;;;;;;4.77;2.00;;;29.00;55.60;;;;;;4999275;28;20421;-80
2021/06/21 00:09:49;;;;;;;2.67;2.40;;;29.00;55.60;;;;;;4999649;28;20474;-80
2021/06/21 00:12:17;;;;;;;2.30;2.10;;;29.00;55.60;;;;;;4999420;28;20413;-80
2021/06/21 00:14:43;;;;;;;4.57;2.50;;;28.90;55.60;;;;;;4999626;28;20416;-80
2021/06/21 00:17:09;;;;;;;4.00;2.27;;;29.00;55.70;;;;;;5016769;28;20495;-79
2021/06/21 00:19:36;;;;;;;3.23;2.20;;;29.00;55.70;;;;;;5016325;28;20488;-79
2021/06/21 00:22:04;;;;;;;7.60;2.40;;;28.90;55.70;;;;;;4999367;28;20425;-79
2021/06/21 00:24:31;;;;;;;2.50;1.80;;;28.90;55.70;;;;;;4998623;28;20500;-79
2021/06/21 00:26:58;;;;;;;9.93;2.53;;;28.90;55.70;;;;;;4997461;28;20424;-79
2021/06/21 00:29:24;;;;;;;3.30;2.70;;;28.90;55.70;;;;;;4997429;28;20470;-79
2021/06/21 00:31:54;;;;;;;3.30;2.20;;;28.90;55.70;;;;;;5014760;28;20400;-81
2021/06/21 00:34:21;;;;;;;2.43;2.03;;;28.90;55.70;;;;;;5014513;28;20397;-81
2021/06/21 00:36:48;;;;;;;5.23;2.37;;;28.90;55.70;;;;;;4997665;28;20479;-81
2021/06/21 00:39:14;;;;;;;2.03;1.83;;;28.90;55.60;;;;;;4996550;28;20535;-80
2021/06/21 00:41:41;;;;;;;3.60;2.60;;;28.90;55.60;;;;;;4997401;28;20428;-80
2021/06/21 00:44:08;;;;;;;2.07;1.90;;;29.00;55.60;;;;;;4997087;28;20431;-79
2021/06/21 00:46:36;;;;;;;3.90;2.10;;;28.90;55.60;;;;;;4996730;28;20431;-79
2021/06/21 00:49:02;;;;;;;3.50;2.10;;;28.90;55.60;;;;;;4997227;28;20462;-79
2021/06/21 00:51:31;;;;;;;2.50;2.10;;;28.90;55.50;;;;;;4996995;28;20467;-79
2021/06/21 00:53:57;;;;;;;4.77;2.43;;;29.00;55.50;;;;;;5014133;28;20435;-79
2021/06/21 00:56:24;;;;;;;2.87;1.93;;;29.00;55.60;;;;;;5014039;28;20416;-79
2021/06/21 00:58:57;;;;;;;2.80;2.20;;;29.00;55.50;;;;;;4980186;28;20424;-81
2021/06/21 01:01:23;;;;;;;2.93;1.87;;;29.00;55.50;;;;;;5014221;28;20393;-80
2021/06/21 01:03:49;;;;;;;2.57;2.30;;;29.00;55.60;;;;;;5013638;28;20426;-80
2021/06/21 01:06:15;;;;;;;3.37;2.13;;;29.00;55.50;;;;;;5013917;28;20409;-80
2021/06/21 01:08:41;;;;;;;3.13;1.90;;;29.00;55.50;;;;;;5013842;28;20463;-81
2021/06/21 01:11:08;;;;;;;2.10;1.90;;;29.00;55.50;;;;;;5013339;28;20177;-80
2021/06/21 01:13:57;;;;;;;4.87;2.17;;;29.00;55.50;;;;;;4997105;28;20419;-81
2021/06/21 01:16:36;;;;;;;2.23;2.03;;;29.00;55.50;;;;;;4996356;28;20409;-80
2021/06/21 01:19:12;;;;;;;3.33;2.00;;;29.00;55.50;;;;;;4996830;28;20447;-80
2021/06/21 01:22:23;;;;;;;4.50;2.30;;;29.00;55.60;;;;;;4995946;28;20404;-81
2021/06/21 01:25:20;;;;;;;2.63;2.10;;;29.00;55.60;;;;;;4995948;28;20481;-80
2021/06/21 01:28:02;;;;;;;3.07;2.00;;;28.90;55.70;;;;;;4996352;28;20408;-80
2021/06/21 01:31:03;;;;;;;2.77;1.73;;;28.90;55.70;;;;;;4995675;28;20738;-80
2021/06/21 01:33:30;;;;;;;5.87;2.30;;;28.90;55.70;;;;;;4985770;28;20404;-80
2021/06/21 01:36:06;;;;;;;3.77;2.03;;;28.80;55.70;;;;;;4995939;28;20415;-81
2021/06/21 01:38:42;;;;;;;2.47;1.80;;;28.90;55.70;;;;;;5013084;28;20419;-81
2021/06/21 01:41:18;;;;;;;2.50;1.97;;;28.90;55.70;;;;;;4995880;28;20431;-80
2021/06/21 01:43:46;;;;;;;2.53;2.00;;;28.90;55.60;;;;;;5013579;28;20474;-81
2021/06/21 01:46:16;;;;;;;2.00;1.70;;;28.90;55.60;;;;;;4996502;28;20910;-80
2021/06/21 01:48:46;;;;;;;3.47;1.90;;;28.90;55.60;;;;;;5013809;28;20444;-80
2021/06/21 01:51:15;;;;;;;2.40;1.70;;;28.90;55.60;;;;;;4995427;28;20413;-80
2021/06/21 01:53:41;;;;;;;2.33;2.10;;;28.90;55.60;;;;;;4995815;28;20889;-80
2021/06/21 01:56:16;;;;;;;3.00;1.70;;;28.90;55.50;;;;;;5013420;28;20945;-81
2021/06/21 01:58:44;;;;;;;2.63;1.80;;;29.00;55.60;;;;;;5013453;28;20404;-81
2021/06/21 02:01:16;;;;;;;2.23;1.80;;;29.00;55.60;;;;;;4979881;28;20428;-81
2021/06/21 02:03:51;;;;;;;3.20;1.70;;;29.00;55.60;;;;;;4995898;28;20405;-80
2021/06/21 02:06:18;;;;;;;3.47;2.30;;;29.00;55.60;;;;;;4995867;28;20416;-80
2021/06/21 02:08:48;;;;;;;2.50;1.80;;;29.00;55.60;;;;;;5012987;28;20801;-81
2021/06/21 02:11:16;;;;;;;1.83;1.63;;;29.00;55.60;;;;;;5012540;28;20420;-81
2021/06/21 02:13:44;;;;;;;3.70;2.23;;;29.00;55.60;;;;;;5013147;28;20404;-81
2021/06/21 02:16:12;;;;;;;1.97;1.40;;;29.00;55.60;;;;;;4994909;28;20447;-80
2021/06/21 02:18:40;;;;;;;4.43;2.00;;;29.00;55.50;;;;;;4995230;28;20446;-80
2021/06/21 02:21:08;;;;;;;4.10;2.07;;;29.00;55.60;;;;;;4995763;28;20443;-79
2021/06/21 02:23:37;;;;;;;2.90;1.67;;;28.90;55.60;;;;;;4996913;28;20434;-79
2021/06/21 02:26:05;;;;;;;2.97;2.10;;;28.90;55.60;;;;;;4997023;28;20519;-79
2021/06/21 02:28:32;;;;;;;2.57;2.10;;;28.90;55.60;;;;;;4994935;28;20479;-79
2021/06/21 02:31:00;;;;;;;2.73;2.00;;;28.90;56.10;;;;;;4996841;28;20472;-80
2021/06/21 02:33:26;;;;;;;2.30;1.87;;;28.90;55.70;;;;;;4996835;28;20443;-80
2021/06/21 02:35:53;;;;;;;3.47;2.07;;;28.90;55.70;;;;;;4996708;28;20419;-79
2021/06/21 02:38:19;;;;;;;2.83;1.90;;;28.90;55.70;;;;;;5013595;28;20959;-79
2021/06/21 02:40:46;;;;;;;3.30;2.33;;;28.90;55.70;;;;;;4982250;28;20479;-80
2021/06/21 02:43:12;;;;;;;3.17;2.13;;;28.80;55.70;;;;;;5003243;28;20459;-79
2021/06/21 02:45:38;;;;;;;2.00;1.80;;;28.90;55.70;;;;;;5002901;28;20424;-79
2021/06/21 02:48:06;;;;;;;2.07;1.83;;;28.80;55.70;;;;;;5002404;28;20516;-79
2021/06/21 02:50:38;;;;;;;3.53;1.90;;;28.80;55.70;;;;;;5002420;28;20464;-80
2021/06/21 02:53:08;;;;;;;2.63;2.33;;;28.80;55.70;;;;;;5002139;28;20440;-79
2021/06/21 02:56:15;;;;;;;2.50;1.83;;;28.90;55.80;;;;;;5001504;28;20456;-79
2021/06/21 02:58:47;;;;;;;2.80;2.00;;;28.80;55.70;;;;;;5017887;28;20408;-79
2021/06/21 03:02:00;;;;;;;2.50;1.60;;;28.80;55.80;;;;;;5004524;28;20396;-79
2021/06/21 03:21:33;;;;;;;6.97;3.37;;;28.60;56.50;;;;;;4940527;29;20431;-80
2021/06/21 03:24:52;;;;;;;4.17;2.93;;;28.60;56.60;;;;;;4919263;29;20430;-79
2021/06/21 03:27:31;;;;;;;5.83;3.00;;;28.60;56.60;;;;;;4922097;29;20412;-78
2021/06/21 03:30:27;;;;;;;5.90;3.40;;;28.60;56.70;;;;;;4939398;29;20427;-78
2021/06/21 03:33:25;;;;;;;5.27;3.17;;;28.50;56.70;;;;;;4939469;29;20408;-79
2021/06/21 03:39:39;;;;;;;4.97;2.80;;;28.60;56.70;;;;;;4939475;29;20519;-79
2021/06/21 03:45:44;;;;;;;8.43;3.40;;;28.50;56.70;;;;;;4938807;29;20494;-79
2021/06/21 03:52:24;;;;;;;5.50;3.47;;;28.50;56.80;;;;;;4940058;29;20435;-79
2021/06/21 04:01:27;;;;;;;4.00;3.37;;;28.40;57.00;;;;;;4959718;29;20410;-79
2021/06/21 04:04:57;;;;;;;4.50;3.40;;;28.40;57.00;;;;;;4934835;29;20415;-80
2021/06/21 04:14:34;;;;;;;7.77;4.70;;;28.40;57.40;;;;;;4883174;29;20426;-79
2021/06/21 04:17:07;;;;;;;12.20;5.80;;;28.40;57.50;;;;;;4881047;29;20447;-78
2021/06/21 04:25:52;;;;;;;10.83;5.80;;;28.40;57.90;;;;;;4900345;29;20393;-78
2021/06/21 04:28:18;;;;;;;6.00;5.43;;;28.30;57.70;;;;;;4900903;29;20875;-79
2021/06/21 04:30:45;;;;;;;6.93;5.27;;;28.30;58.00;;;;;;4899687;29;20429;-79
2021/06/21 04:33:13;;;;;;;11.90;5.77;;;28.30;57.70;;;;;;4886656;29;20428;-79
2021/06/21 04:35:41;;;;;;;8.83;5.40;;;28.20;58.00;;;;;;4930404;29;20411;-79
2021/06/21 04:38:07;;;;;;;6.70;5.07;;;28.30;58.00;;;;;;4943537;29;20415;-80
2021/06/21 04:40:39;;;;;;;11.03;5.60;;;28.20;58.00;;;;;;4956586;28;20452;-79
2021/06/21 04:43:09;;;;;;;8.23;5.67;;;28.20;58.00;;;;;;4940549;29;20182;-79
2021/06/21 04:45:43;;;;;;;8.20;5.30;;;28.20;58.00;;;;;;4978340;28;20433;-79
2021/06/21 04:48:09;;;;;;;10.33;5.67;;;28.20;58.10;;;;;;4999021;28;20452;-79
2021/06/21 04:50:39;;;;;;;8.33;5.10;;;28.10;58.10;;;;;;4997828;28;20408;-79
2021/06/21 04:56:28;;;;;;;9.47;6.00;;;28.00;58.10;;;;;;5013109;28;20380;-83
2021/06/21 04:58:55;;;;;;;12.10;6.10;;;27.90;58.30;;;;;;5013179;28;20409;-79
2021/06/21 05:01:29;;;;;;;9.73;5.70;;;27.90;58.30;;;;;;4998427;28;20181;-83
2021/06/21 05:03:54;;;;;;;8.43;5.90;;;27.90;58.40;;;;;;5022092;28;20408;-79
2021/06/21 05:06:20;;;;;;;6.77;5.33;;;27.80;58.30;;;;;;5021548;28;20432;-79
2021/06/21 05:08:46;;;;;;;10.00;5.03;;;27.80;58.30;;;;;;5255211;23;20283;-80
2021/06/21 05:11:56;;;;;;;9.33;5.60;;;27.80;58.50;;;;;;5014931;28;20168;-80
2021/06/21 05:14:21;;;;;;;9.50;5.60;;;27.80;58.40;;;;;;5025658;28;20427;-80
2021/06/21 05:20:12;;;;;;;9.00;5.60;;;27.80;58.50;;;;;;5263947;23;20275;-81
2021/06/21 05:26:04;;;;;;;6.93;5.70;;;27.80;58.50;;;;;;5907049;23;20550;-80
2021/06/21 05:28:39;;;;;;;8.23;5.60;;;27.80;58.50;;;;;;5012549;28;20475;-80
2021/06/21 05:31:06;;;;;;;13.80;5.37;;;27.80;58.50;;;;;;4992415;28;20426;-80
2021/06/21 05:33:32;;;;;;;8.30;5.10;;;27.80;58.50;;;;;;5026893;28;20428;-79
2021/06/21 05:35:58;;;;;;;6.27;5.57;;;27.80;58.60;;;;;;5004258;28;20416;-80
2021/06/21 05:38:25;;;;;;;9.47;5.63;;;27.70;58.50;;;;;;5032605;28;20427;-79
2021/06/21 05:40:51;;;;;;;10.80;5.70;;;27.70;58.70;;;;;;5017504;28;20180;-80
2021/06/21 05:43:17;;;;;;;8.00;4.70;;;27.70;58.70;;;;;;5034278;28;20430;-79
2021/06/21 05:45:46;;;;;;;9.77;4.70;;;27.70;58.60;;;;;;5017382;28;20404;-82
2021/06/21 05:48:12;;;;;;;8.43;4.60;;;27.70;58.70;;;;;;5000894;28;20204;-79
2021/06/21 05:50:38;;;;;;;10.77;6.13;;;27.70;58.60;;;;;;5016771;28;20491;-79
2021/06/21 05:53:05;;;;;;;10.40;5.13;;;27.70;58.50;;;;;;5016086;28;20180;-81
2021/06/21 05:55:32;;;;;;;9.67;5.03;;;27.70;58.60;;;;;;5015901;28;20459;-79
2021/06/21 05:58:00;;;;;;;7.97;4.40;;;27.70;58.50;;;;;;5033148;28;20418;-80
2021/06/21 06:00:26;;;;;;;7.83;4.50;;;27.70;58.40;;;;;;5015291;28;20908;-80
2021/06/21 06:02:55;;;;;;;13.37;5.07;;;27.70;58.40;;;;;;5032945;28;20416;-80
2021/06/21 06:05:22;;;;;;;9.23;4.90;;;27.70;58.50;;;;;;5015626;28;20184;-80
2021/06/21 06:07:48;;;;;;;8.27;5.70;;;27.70;58.50;;;;;;5015264;28;20458;-79
2021/06/21 06:10:16;;;;;;;7.03;4.17;;;27.70;58.40;;;;;;5014749;28;20427;-79
2021/06/21 06:12:44;;;;;;;7.00;4.60;;;27.70;58.40;;;;;;4999235;28;20570;-79
2021/06/21 06:15:14;;;;;;;8.07;3.97;;;27.70;58.40;;;;;;5032332;28;20404;-79
2021/06/21 06:17:40;;;;;;;11.33;4.47;;;27.70;58.30;;;;;;5015772;28;20425;-79
2021/06/21 06:20:06;;;;;;;6.90;3.40;;;27.60;58.20;;;;;;5032039;28;20434;-80
2021/06/21 06:22:32;;;;;;;7.27;3.70;;;27.70;58.10;;;;;;5031922;28;20419;-80
2021/06/21 06:24:58;;;;;;;7.43;3.67;;;27.70;58.10;;;;;;5015091;28;20412;-80
2021/06/21 06:27:29;;;;;;;6.47;3.57;;;27.70;58.00;;;;;;5014787;28;20192;-79
2021/06/21 06:29:57;;;;;;;7.87;4.20;;;27.70;58.00;;;;;;5014847;28;20451;-79
2021/06/21 06:32:24;;;;;;;6.17;3.07;;;27.70;57.90;;;;;;5015087;28;20446;-79
2021/06/21 06:34:53;;;;;;;5.40;3.97;;;27.70;57.90;;;;;;5032440;28;20407;-80
2021/06/21 06:37:19;;;;;;;8.93;3.67;;;27.70;57.80;;;;;;5014626;28;20411;-79
2021/06/21 06:39:45;;;;;;;7.73;4.00;;;27.70;57.80;;;;;;5032074;28;20442;-79
2021/06/21 06:42:10;;;;;;;7.53;4.07;;;27.70;57.80;;;;;;5015032;28;20176;-80
2021/06/21 06:44:37;;;;;;;8.60;3.33;;;27.70;57.70;;;;;;5032179;28;20165;-82
2021/06/21 06:47:05;;;;;;;11.90;3.70;;;27.70;57.60;;;;;;5014965;28;20235;-80
2021/06/21 06:49:31;;;;;;;8.57;3.23;;;27.70;57.50;;;;;;4982342;28;20465;-80
2021/06/21 06:52:00;;;;;;;7.77;3.53;;;27.70;57.40;;;;;;4997853;28;20416;-81
2021/06/21 06:54:44;;;;;;;6.13;2.60;;;27.70;57.40;;;;;;4999272;28;20434;-80
2021/06/21 06:57:10;;;;;;;10.37;3.87;;;27.70;57.20;;;;;;5032157;28;20464;-80
2021/06/21 06:59:38;;;;;;;8.43;2.90;;;27.70;57.10;;;;;;5015158;28;20423;-80
2021/06/21 07:02:22;;;;;;;7.20;2.53;;;27.70;57.10;;;;;;5015856;28;20473;-80
2021/06/21 07:04:48;;;;;;;8.43;3.27;;;27.60;56.80;;;;;;5015251;28;20423;-79
2021/06/21 07:07:23;;;;;;;13.50;3.17;;;27.70;56.90;;;;;;5032772;28;20403;-81
2021/06/21 07:09:51;;;;;;;7.40;2.83;;;27.70;56.70;;;;;;5016213;28;20463;-79
2021/06/21 07:12:17;;;;;;;9.60;2.43;;;27.60;56.90;;;;;;5033512;28;20478;-79
2021/06/21 07:14:45;;;;;;;5.73;2.20;;;27.60;56.80;;;;;;5033387;28;20413;-79
2021/06/21 07:17:11;;;;;;;5.03;2.40;;;27.60;56.80;;;;;;5018269;28;20184;-79
2021/06/21 07:19:37;;;;;;;5.47;2.50;;;27.60;56.70;;;;;;5015841;28;20446;-79
2021/06/21 07:22:03;;;;;;;4.97;3.00;;;27.60;56.70;;;;;;5034379;28;20422;-79
2021/06/21 07:24:30;;;;;;;3.70;2.67;;;27.60;56.50;;;;;;5017585;28;20431;-79
2021/06/21 07:26:56;;;;;;;6.03;2.87;;;27.60;56.60;;;;;;5033727;28;20431;-79
2021/06/21 07:29:22;;;;;;;6.63;2.70;;;27.60;56.50;;;;;;5034239;28;20451;-79
2021/06/21 07:32:06;;;;;;;8.50;2.73;;;27.60;56.30;;;;;;5033424;28;20781;-79
2021/06/21 07:34:36;;;;;;;8.10;2.50;;;27.60;56.20;;;;;;5015299;28;20408;-79
2021/06/21 07:37:02;;;;;;;5.33;2.47;;;27.50;56.60;;;;;;5033477;28;20411;-80
2021/06/21 07:39:27;;;;;;;8.50;2.60;;;27.50;56.80;;;;;;5014834;28;20428;-79
2021/06/21 07:41:58;;;;;;;11.97;3.23;;;27.50;56.70;;;;;;5032799;28;20167;-80
2021/06/21 07:44:24;;;;;;;7.60;2.70;;;27.50;56.70;;;;;;5015903;28;20176;-79
2021/06/21 07:46:51;;;;;;;4.60;2.47;;;27.50;56.80;;;;;;5017146;28;20438;-80
2021/06/21 07:49:26;;;;;;;4.80;2.23;;;27.50;56.80;;;;;;4998946;28;20554;-80
2021/06/21 07:51:58;;;;;;;6.27;2.80;;;27.50;56.60;;;;;;5018066;28;20411;-80
2021/06/21 07:54:24;;;;;;;5.87;2.57;;;27.50;56.70;;;;;;4999475;28;20411;-79
2021/06/21 07:56:50;;;;;;;7.53;2.70;;;27.50;56.60;;;;;;5031961;28;20446;-79
2021/06/21 07:59:18;;;;;;;7.23;2.67;;;27.50;56.70;;;;;;5031634;28;20176;-79
2021/06/21 08:01:44;;;;;;;5.20;2.73;;;27.50;56.60;;;;;;5031458;28;20199;-80
2021/06/21 08:04:17;;;;;;;9.20;2.97;;;27.50;56.70;;;;;;5014843;28;20419;-79
2021/06/21 08:06:48;;;;;;;4.40;2.33;;;27.50;56.70;;;;;;5016447;28;20399;-79
2021/06/21 08:09:24;;;;;;;5.07;2.47;;;27.50;56.70;;;;;;5038657;28;20463;-79
2021/06/21 13:07:05;;;;;;;3.67;2.20;;;28.50;52.70;;;;;;5577731;23;20497;-79
2021/06/21 13:10:05;;;;;;;;;;;;;;;;;;;;;
2021/06/21 13:13:03;;;;;;;5.40;1.80;;;28.50;52.80;;;;;;4979967;28;20474;-79
2021/06/21 13:19:16;;;;;;;5.10;1.90;;;28.50;52.70;;;;;;4933976;29;20538;-77
2021/06/21 13:21:45;;;;;;;3.10;1.43;;;28.50;52.80;;;;;;4935317;29;20479;-78
2021/06/21 13:24:30;;;;;;;3.73;2.10;;;28.50;52.60;;;;;;4934683;29;20423;-77
2021/06/21 13:27:00;;;;;;;2.50;1.40;;;28.60;52.40;;;;;;4934196;29;20408;-78
2021/06/21 13:29:29;;;;;;;5.47;1.90;;;28.60;52.30;;;;;;4917355;29;20554;-78
2021/06/21 13:32:00;;;;;;;3.93;1.57;;;28.60;52.30;;;;;;4918537;29;20423;-79
2021/06/21 13:34:46;;;;;;;2.53;1.83;;;28.60;52.50;;;;;;4918382;29;20427;-78
2021/06/21 13:37:20;;;;;;;2.90;2.00;;;28.60;52.40;;;;;;4934613;29;20412;-78
2021/06/21 13:40:11;;;;;;;3.17;2.27;;;28.60;52.50;;;;;;4919294;29;20430;-78
2021/06/21 13:42:39;;;;;;;2.97;1.30;;;28.60;52.40;;;;;;4917221;29;20424;-78
2021/06/21 13:45:27;;;;;;;2.60;1.50;;;28.60;52.40;;;;;;4933570;29;20455;-80
2021/06/21 13:48:18;;;;;;;2.30;1.60;;;28.60;52.30;;;;;;4955711;29;20454;-79
2021/06/21 13:50:52;;;;;;;3.43;1.90;;;28.60;52.40;;;;;;4967695;29;20438;-79
2021/06/21 13:53:29;;;;;;;1.60;1.37;;;28.60;52.20;;;;;;4954001;29;20429;-79
2021/06/21 13:55:58;;;;;;;3.03;1.70;;;28.60;52.10;;;;;;4971220;29;20425;-79
2021/06/21 13:58:40;;;;;;;2.80;1.53;;;28.60;52.20;;;;;;4952103;29;20422;-80
2021/06/21 14:01:20;;;;;;;4.20;2.20;;;28.60;52.10;;;;;;4940143;29;20450;-79
2021/06/21 14:03:57;;;;;;;1.83;1.30;;;28.60;52.10;;;;;;4952047;29;20419;-79
2021/06/21 14:06:25;;;;;;;2.77;1.30;;;28.60;52.30;;;;;;4941828;29;20442;-79
2021/06/21 14:08:53;;;;;;;3.20;1.50;;;28.60;52.20;;;;;;4969770;29;20966;-78
2021/06/21 14:11:20;;;;;;;3.03;1.60;;;28.70;52.20;;;;;;4951628;29;20524;-78
2021/06/21 14:13:46;;;;;;;2.50;1.40;;;28.60;51.80;;;;;;4954351;29;20429;-78
2021/06/21 14:16:15;;;;;;;2.33;1.50;;;28.60;51.70;;;;;;4971331;28;20452;-79
2021/06/21 14:18:41;;;;;;;3.10;1.53;;;28.70;51.70;;;;;;4971382;29;20441;-80
2021/06/21 14:21:08;;;;;;;3.57;1.63;;;28.70;51.80;;;;;;4954954;29;20442;-80
2021/06/21 14:23:43;;;;;;;3.03;1.50;;;28.70;51.70;;;;;;4954011;29;20186;-79
2021/06/21 14:26:09;;;;;;;1.90;1.10;;;28.70;51.80;;;;;;4970881;29;20459;-80
2021/06/21 15:17:50;;;;;;;2.30;1.30;;;28.70;51.70;;;;;;5992864;23;20404;-80
2021/06/21 15:20:41;;;;;;;2.10;1.20;;;28.80;51.90;;;;;;4964153;29;20473;-78
2021/06/21 15:23:07;;;;;;;3.77;1.33;;;28.80;52.00;;;;;;4963981;28;20402;-78
2021/06/21 15:25:39;;;;;;;3.47;1.40;;;28.70;52.00;;;;;;4963746;28;20425;-78
2021/06/21 15:28:25;;;;;;;1.97;1.50;;;28.80;52.20;;;;;;4953426;29;20441;-78
2021/06/21 15:30:55;;;;;;;2.70;1.60;;;28.80;52.30;;;;;;4963977;29;20437;-79
2021/06/21 15:41:26;;;;;;;1.97;1.30;;;28.90;52.60;;;;;;5384570;23;20513;-79
2021/06/21 16:15:52;;;;;;;2.07;1.43;;;28.90;52.00;;;;;;5740844;23;20502;-80
2021/06/21 16:26:00;;;;;;;2.00;1.30;;;28.90;52.30;;;;;;4961399;29;20523;-79
2021/06/21 16:42:32;;;;;;;8.53;2.03;;;28.90;52.60;;;;;;4882808;29;20430;-79
2021/06/21 16:45:32;;;;;;;2.63;1.70;;;28.90;52.70;;;;;;4866443;29;20418;-79
2021/06/21 16:48:33;;;;;;;1.83;1.40;;;28.90;52.70;;;;;;4876750;29;20443;-80
2021/06/21 16:51:27;;;;;;;2.10;1.40;;;28.90;52.70;;;;;;4830449;29;20423;-80
2021/06/21 17:00:30;;;;;;;1.30;1.20;;;28.90;52.70;;;;;;4825277;29;20428;-78
2021/06/21 17:03:03;;;;;;;1.60;1.33;;;28.90;52.80;;;;;;4810590;29;20433;-78
2021/06/21 17:05:31;;;;;;;1.93;1.10;;;29.00;52.80;;;;;;4810233;29;20433;-77
2021/06/21 17:08:03;;;;;;;1.30;1.20;;;29.00;52.80;;;;;;4820931;29;20916;-79
2021/06/21 17:11:07;;;;;;;2.10;1.20;;;29.00;52.70;;;;;;4851864;29;20466;-81
2021/06/21 17:13:59;;;;;;;2.33;1.30;;;29.00;52.70;;;;;;4882355;29;20436;-78
2021/06/21 17:17:30;;;;;;;1.60;1.10;;;29.00;52.70;;;;;;4896546;29;20465;-79
2021/06/21 17:23:50;;;;;;;1.57;1.00;;;29.00;52.90;;;;;;4882291;29;20394;-78
2021/06/21 17:26:19;;;;;;;2.60;1.23;;;29.00;52.90;;;;;;4872057;29;20429;-78
2021/06/21 17:28:48;;;;;;;1.50;1.30;;;29.00;52.90;;;;;;4884804;29;20503;-78
2021/06/21 17:31:19;;;;;;;2.07;1.27;;;29.00;52.80;;;;;;4899872;29;20461;-78
2021/06/21 17:33:48;;;;;;;2.37;1.30;;;29.00;52.80;;;;;;4900298;29;20433;-79
2021/06/21 17:36:14;;;;;;;1.87;1.33;;;29.00;52.80;;;;;;4901573;29;20507;-78
2021/06/21 17:39:07;;;;;;;2.23;1.40;;;29.10;52.80;;;;;;4899946;29;20426;-78
2021/06/21 17:41:36;;;;;;;1.70;1.20;;;29.10;52.70;;;;;;4885057;29;20818;-78
2021/06/21 17:44:05;;;;;;;1.17;1.07;;;29.10;52.80;;;;;;4900640;29;20433;-78
2021/06/21 17:46:34;;;;;;;2.10;1.53;;;29.10;52.70;;;;;;4900964;29;20453;-79
2021/06/21 17:49:12;;;;;;;1.10;0.93;;;29.10;52.70;;;;;;4901226;29;20469;-78
2021/06/21 17:51:38;;;;;;;2.03;1.47;;;29.10;52.60;;;;;;4902406;29;20438;-78
2021/06/21 17:54:08;;;;;;;3.53;1.60;;;29.10;52.60;;;;;;4902275;29;20440;-79
2021/06/21 17:56:51;;;;;;;2.23;1.70;;;29.10;52.60;;;;;;4932175;28;20405;-78
2021/06/21 17:59:21;;;;;;;1.90;1.70;;;29.10;52.60;;;;;;4983240;28;20473;-79
2021/06/21 18:01:47;;;;;;;3.27;2.00;;;29.10;52.60;;;;;;4983604;28;20451;-79
2021/06/21 18:04:13;;;;;;;1.60;1.30;;;29.10;52.50;;;;;;4983182;28;20417;-79
2021/06/21 18:06:48;;;;;;;2.43;1.60;;;29.10;52.50;;;;;;5000333;28;20401;-78
2021/06/21 18:09:44;;;;;;;2.47;1.83;;;29.10;52.40;;;;;;4983539;28;20551;-78
2021/06/21 18:12:15;;;;;;;2.20;1.90;;;29.10;52.50;;;;;;4957588;28;20404;-78
2021/06/21 18:15:13;;;;;;;1.83;1.40;;;29.10;52.40;;;;;;4983386;28;20416;-79
2021/06/21 19:51:35;;;;;;;3.23;2.13;;;29.10;52.60;;;;;;4796167;29;20477;-79
2021/06/21 19:54:55;;;;;;;4.07;2.00;;;29.10;52.70;;;;;;4724880;30;20462;-78
2021/06/21 20:00:51;;;;;;;1.70;1.57;;;29.10;52.70;;;;;;4704191;30;20414;-78
2021/06/21 20:07:28;;;;;;;3.87;1.80;;;29.10;52.70;;;;;;4685707;30;20441;-79
2021/06/21 20:10:06;;;;;;;4.50;1.77;;;29.10;52.70;;;;;;4679447;30;21338;-80
2021/06/21 20:12:40;;;;;;;2.37;1.60;;;29.10;52.70;;;;;;4684066;30;20861;-80
2021/06/21 20:15:18;;;;;;;1.70;1.60;;;29.10;52.70;;;;;;4680078;30;20508;-79
2021/06/21 20:17:52;;;;;;;2.10;1.80;;;29.10;52.70;;;;;;4703899;30;20446;-83
2021/06/21 20:31:52;;;;;;;1.80;1.40;;;29.10;52.70;;;;;;4998519;28;20375;-79
2021/06/21 20:40:54;;;;;;;1.90;1.70;;;29.10;52.80;;;;;;4992520;28;20418;-79
2021/06/21 20:43:19;;;;;;;2.17;1.70;;;29.10;52.90;;;;;;4984597;28;20436;-79
2021/06/21 20:46:16;;;;;;;2.40;1.83;;;29.10;52.90;;;;;;4976023;28;20489;-81
2021/06/21 20:48:48;;;;;;;2.27;1.57;;;29.10;52.80;;;;;;4976185;28;20276;-78
2021/06/21 20:51:14;;;;;;;2.03;1.87;;;29.10;52.80;;;;;;4996419;28;20401;-79
2021/06/21 20:53:45;;;;;;;1.97;1.67;;;29.20;52.90;;;;;;4996659;28;20408;-78
2021/06/21 20:56:14;;;;;;;3.93;1.80;;;29.10;52.80;;;;;;4980874;28;20437;-79
2021/06/21 20:58:39;;;;;;;2.97;1.90;;;29.10;52.80;;;;;;4982502;28;20429;-78
2021/06/21 21:01:05;;;;;;;3.60;2.00;;;29.10;52.80;;;;;;4992844;28;20422;-79
2021/06/21 21:03:33;;;;;;;2.10;1.90;;;29.20;52.80;;;;;;4994361;28;20220;-78
2021/06/21 21:05:59;;;;;;;1.93;1.60;;;29.20;52.90;;;;;;4978515;28;20177;-79
2021/06/21 21:08:24;;;;;;;2.13;1.63;;;29.20;52.80;;;;;;4977474;28;20425;-79
2021/06/21 21:10:50;;;;;;;2.43;1.83;;;29.10;52.80;;;;;;4996602;28;20197;-79
2021/06/21 21:13:17;;;;;;;2.00;1.67;;;29.20;52.80;;;;;;4978391;28;20162;-79
2021/06/21 21:15:46;;;;;;;2.23;1.83;;;29.20;52.80;;;;;;4975005;29;20517;-79
2021/06/21 21:18:12;;;;;;;3.63;2.80;;;29.20;52.80;;;;;;4978377;28;20465;-78
2021/06/21 21:20:37;;;;;;;2.30;2.03;;;29.20;52.80;;;;;;4994814;28;20429;-78
2021/06/21 21:23:04;;;;;;;2.60;1.80;;;29.20;52.80;;;;;;4995337;28;20188;-78
2021/06/21 21:25:32;;;;;;;2.80;2.07;;;29.20;52.80;;;;;;4975662;28;20225;-78
2021/06/21 21:28:01;;;;;;;3.10;2.50;;;29.20;52.80;;;;;;4978376;28;20448;-79
2021/06/21 21:30:27;;;;;;;2.00;1.50;;;29.20;52.80;;;;;;4994418;28;20484;-80
2021/06/21 21:32:53;;;;;;;2.43;1.83;;;29.20;52.80;;;;;;4969583;28;20426;-79
2021/06/21 21:35:19;;;;;;;3.40;1.90;;;29.20;52.80;;;;;;4999022;28;20440;-79
2021/06/21 21:37:45;;;;;;;1.90;1.50;;;29.20;52.80;;;;;;4996644;28;20434;-80
2021/06/21 21:40:13;;;;;;;2.87;1.90;;;29.20;52.80;;;;;;4978626;28;20528;-79
2021/06/21 21:42:41;;;;;;;2.83;2.37;;;29.20;52.80;;;;;;4993050;28;20430;-79
2021/06/21 21:45:09;;;;;;;3.77;1.90;;;29.20;52.80;;;;;;4984452;28;20443;-79
2021/06/21 21:47:41;;;;;;;2.10;1.90;;;29.20;52.80;;;;;;4981876;28;20414;-80
2021/06/21 21:50:09;;;;;;;2.43;2.23;;;29.20;52.80;;;;;;5005879;28;20440;-79
2021/06/21 21:52:41;;;;;;;3.00;2.07;;;29.20;52.80;;;;;;4987026;28;20424;-79
2021/06/21 21:55:22;;;;;;;2.20;1.80;;;29.20;52.80;;;;;;4998644;28;20416;-80
2021/06/21 21:57:51;;;;;;;2.27;1.90;;;29.20;52.80;;;;;;5001268;28;20405;-79
2021/06/21 22:00:19;;;;;;;2.23;1.57;;;29.20;52.80;;;;;;4978778;28;20472;-80
2021/06/21 22:02:45;;;;;;;2.10;1.87;;;29.20;52.80;;;;;;4995570;28;20482;-80
2021/06/21 22:05:12;;;;;;;2.57;1.80;;;29.20;52.80;;;;;;4981877;28;20787;-79
2021/06/21 22:07:38;;;;;;;2.50;2.20;;;29.20;52.80;;;;;;4994359;28;20457;-80
2021/06/21 22:10:05;;;;;;;2.80;1.90;;;29.20;52.80;;;;;;4975996;28;20474;-80
2021/06/21 22:12:31;;;;;;;2.07;1.67;;;29.10;52.70;;;;;;4992042;28;20198;-80
2021/06/21 22:15:00;;;;;;;2.70;1.80;;;29.20;52.80;;;;;;4982008;28;20484;-78
2021/06/21 22:17:25;;;;;;;2.80;2.30;;;29.20;52.80;;;;;;4993272;28;20194;-79
2021/06/21 22:19:51;;;;;;;2.07;1.87;;;29.20;52.90;;;;;;4982180;28;20457;-78
2021/06/21 22:22:17;;;;;;;2.20;1.97;;;29.20;52.90;;;;;;5000291;28;20237;-79
2021/06/21 22:24:46;;;;;;;3.30;1.73;;;29.20;52.90;;;;;;4983057;28;20417;-78
2021/06/21 22:27:11;;;;;;;2.27;1.70;;;29.10;52.80;;;;;;4983182;28;20288;-79
2021/06/21 22:29:47;;;;;;;2.00;1.80;;;29.20;52.90;;;;;;4999718;28;20468;-80
2021/06/21 22:32:17;;;;;;;2.17;1.97;;;29.20;52.90;;;;;;4982074;28;20209;-79
2021/06/21 22:34:46;;;;;;;2.30;2.10;;;29.20;52.90;;;;;;4981596;28;20390;-80
2021/06/21 22:37:15;;;;;;;3.30;1.90;;;29.20;53.00;;;;;;4998823;28;20393;-80
2021/06/21 22:39:41;;;;;;;1.83;1.63;;;29.10;52.90;;;;;;4998913;28;20401;-80
2021/06/21 22:42:07;;;;;;;3.10;2.03;;;29.10;53.00;;;;;;4998914;28;20405;-80
2021/06/21 22:44:34;;;;;;;2.10;2.00;;;29.10;53.00;;;;;;4981789;28;20397;-80
2021/06/21 22:47:04;;;;;;;1.90;1.70;;;29.10;53.00;;;;;;4982121;28;20444;-80
2021/06/21 22:49:31;;;;;;;5.07;2.27;;;29.10;53.00;;;;;;4982101;28;20447;-80
2021/06/21 22:51:59;;;;;;;2.00;1.90;;;29.10;53.00;;;;;;4981940;28;20413;-80
2021/06/21 22:54:30;;;;;;;3.13;2.23;;;29.10;53.00;;;;;;4998677;28;20413;-80
2021/06/21 22:56:56;;;;;;;2.50;1.87;;;29.20;53.10;;;;;;4998268;28;20401;-80
2021/06/21 22:59:22;;;;;;;3.50;2.57;;;29.10;53.00;;;;;;4981675;28;20445;-79
2021/06/21 23:01:49;;;;;;;2.57;2.27;;;29.10;53.10;;;;;;4998157;28;20660;-79
2021/06/21 23:04:19;;;;;;;2.33;1.93;;;29.10;53.10;;;;;;4998228;28;20182;-80
2021/06/21 23:06:45;;;;;;;2.40;2.10;;;29.10;53.10;;;;;;4981517;28;20429;-80
2021/06/21 23:09:11;;;;;;;1.67;1.57;;;29.00;53.10;;;;;;4980971;28;20468;-80